Time;durP1;ratioP1;P1;durP2;ratioP2;P2;SDS_P1;SDS_P2;PMS_P1;PMS_P2;Temp;Humidity;BMP_temperature;BMP_pressure;BME280_temperature;BME280_humidity;BME280_pressure;Samples;Min_cycle;Max_cycle;Signal;HPM_P1;HPM_P2
2022/07/06 00:00:07;;;;;;;3.13;0.80;;;20.00;99.80;;;;;;4849597;29;20093;-79
2022/07/06 00:02:33;;;;;;;6.38;1.02;;;20.00;99.90;;;;;;4850278;29;20112;-79
2022/07/06 00:04:58;;;;;;;5.90;0.85;;;19.90;99.90;;;;;;4851021;29;20330;-79
2022/07/06 00:07:24;;;;;;;4.68;0.88;;;19.90;99.90;;;;;;4851004;29;20026;-79
2022/07/06 00:09:50;;;;;;;3.63;1.23;;;19.90;99.90;;;;;;4850105;29;20242;-79
2022/07/06 00:12:16;;;;;;;5.28;0.80;;;19.90;99.90;;;;;;4848951;29;20029;-79
2022/07/06 00:14:41;;;;;;;5.95;1.05;;;19.80;99.90;;;;;;4841715;29;20033;-78
2022/07/06 00:17:07;;;;;;;5.40;0.80;;;19.80;99.90;;;;;;4846634;29;20025;-79
2022/07/06 00:19:33;;;;;;;4.13;1.10;;;19.80;99.90;;;;;;4850749;29;20025;-79
2022/07/06 00:21:59;;;;;;;3.22;0.90;;;19.80;99.90;;;;;;4850297;29;20216;-78
2022/07/06 00:24:25;;;;;;;3.30;0.68;;;19.80;99.90;;;;;;4850642;29;20201;-79
2022/07/06 00:26:50;;;;;;;7.82;0.93;;;19.80;99.90;;;;;;4842780;29;20057;-78
2022/07/06 00:29:16;;;;;;;8.20;1.13;;;19.80;99.90;;;;;;4845140;29;20028;-78
2022/07/06 00:31:42;;;;;;;2.90;0.93;;;19.80;99.90;;;;;;4850355;29;20040;-79
2022/07/06 00:34:08;;;;;;;5.13;1.02;;;19.70;99.90;;;;;;4850597;29;20094;-79
2022/07/06 00:36:33;;;;;;;4.13;0.75;;;19.70;99.90;;;;;;4849381;29;20054;-78
2022/07/06 00:38:59;;;;;;;3.92;0.98;;;19.70;99.90;;;;;;4849134;29;20056;-79
2022/07/06 00:41:25;;;;;;;3.65;1.00;;;19.60;99.90;;;;;;4849817;29;20073;-79
2022/07/06 00:43:55;;;;;;;9.38;0.98;;;19.50;99.90;;;;;;4849090;29;20026;-79
2022/07/06 00:46:41;;;;;;;4.30;0.80;;;19.50;99.90;;;;;;4849605;29;20314;-79
2022/07/06 00:50:13;;;;;;;4.40;0.75;;;19.50;99.90;;;;;;4850222;29;20263;-79
2022/07/06 00:51:52;;;;;;;6.07;0.98;;;19.50;99.90;;;;;;4849911;29;20295;-79
2022/07/06 00:54:18;;;;;;;4.47;1.00;;;19.40;99.90;;;;;;4850611;29;20029;-79
2022/07/06 00:56:44;;;;;;;5.32;1.00;;;19.40;99.90;;;;;;4850379;29;20313;-79
2022/07/06 00:59:09;;;;;;;2.10;1.00;;;19.40;99.90;;;;;;4849640;29;20033;-78
2022/07/06 01:01:35;;;;;;;5.65;1.02;;;19.30;99.90;;;;;;4848648;29;20026;-79
2022/07/06 01:04:01;;;;;;;3.30;0.80;;;19.30;99.90;;;;;;4850156;29;20098;-79
2022/07/06 01:06:27;;;;;;;5.28;1.05;;;19.20;99.90;;;;;;4849993;29;20456;-79
2022/07/06 01:08:53;;;;;;;5.10;1.33;;;19.20;99.90;;;;;;4849683;29;20053;-79
2022/07/06 01:11:20;;;;;;;4.13;0.90;;;19.30;99.90;;;;;;4849812;29;20030;-79
2022/07/06 01:13:47;;;;;;;6.50;1.15;;;19.30;99.90;;;;;;4849966;29;20098;-78
2022/07/06 01:16:13;;;;;;;7.63;1.00;;;19.30;99.90;;;;;;4849474;29;20041;-79
2022/07/06 01:18:39;;;;;;;5.00;1.05;;;19.20;99.90;;;;;;4848828;29;20030;-79
2022/07/06 01:21:10;;;;;;;3.63;1.10;;;19.20;99.90;;;;;;4849270;29;20034;-78
2022/07/06 01:23:43;;;;;;;4.15;1.15;;;19.10;99.90;;;;;;4849084;29;20030;-79
2022/07/06 01:26:12;;;;;;;3.17;0.93;;;19.00;99.90;;;;;;4847729;29;20372;-78
2022/07/06 01:28:38;;;;;;;6.38;0.98;;;18.90;99.90;;;;;;4839589;29;20264;-79
2022/07/06 01:31:03;;;;;;;5.40;1.00;;;19.00;99.90;;;;;;4849579;29;20173;-79
2022/07/06 01:33:29;;;;;;;5.40;1.08;;;18.90;99.90;;;;;;4849276;29;20033;-79
2022/07/06 01:35:55;;;;;;;4.40;0.88;;;18.90;99.90;;;;;;4850188;29;20041;-78
2022/07/06 01:38:21;;;;;;;5.15;1.40;;;18.90;99.90;;;;;;4849786;29;20175;-79
2022/07/06 01:40:46;;;;;;;5.90;0.98;;;18.80;99.90;;;;;;4849608;29;20129;-78
2022/07/06 01:43:12;;;;;;;7.85;1.02;;;18.80;99.90;;;;;;4846787;29;20239;-78
2022/07/06 01:45:38;;;;;;;6.90;1.23;;;18.80;99.90;;;;;;4839341;29;20070;-79
2022/07/06 01:48:07;;;;;;;7.20;1.17;;;18.70;99.90;;;;;;4849979;29;20325;-78
2022/07/06 01:50:33;;;;;;;7.43;1.10;;;18.70;99.90;;;;;;4849819;29;20037;-78
2022/07/06 01:53:01;;;;;;;6.20;0.95;;;18.70;99.90;;;;;;4849742;29;20033;-79
2022/07/06 01:55:27;;;;;;;5.75;1.33;;;18.70;99.90;;;;;;4849957;29;20058;-78
2022/07/06 01:57:53;;;;;;;3.75;1.00;;;18.60;99.90;;;;;;4849238;29;20030;-78
2022/07/06 02:00:19;;;;;;;3.42;1.00;;;18.60;99.90;;;;;;4849340;29;20022;-79
2022/07/06 02:02:44;;;;;;;4.85;1.85;;;18.60;99.90;;;;;;4849426;29;20045;-79
2022/07/06 02:05:10;;;;;;;6.50;1.00;;;18.50;99.90;;;;;;4850195;29;20034;-78
2022/07/06 02:07:36;;;;;;;4.20;1.00;;;18.40;99.90;;;;;;4849352;29;20014;-79
2022/07/06 02:10:02;;;;;;;6.05;1.40;;;18.40;99.90;;;;;;4849321;29;20057;-79
2022/07/06 02:12:27;;;;;;;4.90;0.98;;;18.30;99.90;;;;;;4863675;29;20222;-79
2022/07/06 02:14:53;;;;;;;3.50;0.98;;;18.30;99.90;;;;;;4849579;29;20030;-78
2022/07/06 02:17:19;;;;;;;6.55;0.90;;;18.30;99.90;;;;;;4849349;29;20026;-79
2022/07/06 02:19:44;;;;;;;4.15;1.20;;;18.30;99.90;;;;;;4849115;29;20042;-79
2022/07/06 02:22:10;;;;;;;2.13;0.93;;;18.30;99.90;;;;;;4849737;29;20102;-79
2022/07/06 02:24:36;;;;;;;5.50;1.00;;;18.30;99.90;;;;;;4852650;29;20241;-79
2022/07/06 02:27:02;;;;;;;5.10;1.05;;;18.30;99.90;;;;;;4844057;29;20023;-79
2022/07/06 02:29:27;;;;;;;3.30;0.80;;;18.30;99.90;;;;;;4848836;29;20022;-79
2022/07/06 02:31:53;;;;;;;3.15;1.23;;;18.30;99.90;;;;;;4852005;29;20059;-79
2022/07/06 02:34:19;;;;;;;7.10;1.48;;;18.30;99.90;;;;;;4852376;29;20022;-78
2022/07/06 02:36:45;;;;;;;1.98;0.80;;;18.20;99.90;;;;;;4852489;29;20105;-78
2022/07/06 02:39:10;;;;;;;5.25;1.33;;;18.20;99.90;;;;;;4850788;29;20030;-79
2022/07/06 02:41:36;;;;;;;3.95;1.25;;;18.20;99.90;;;;;;4852024;29;20038;-79
2022/07/06 02:44:02;;;;;;;3.42;1.20;;;18.20;99.90;;;;;;4852921;29;20056;-79
2022/07/06 02:46:28;;;;;;;2.35;0.77;;;18.10;99.90;;;;;;4851520;29;20037;-79
2022/07/06 02:48:53;;;;;;;8.20;1.05;;;18.20;99.90;;;;;;4851340;29;20042;-79
2022/07/06 02:51:19;;;;;;;6.03;1.00;;;18.10;99.90;;;;;;4851473;29;20061;-78
2022/07/06 02:53:45;;;;;;;3.78;0.93;;;18.10;99.90;;;;;;4850766;29;20018;-79
2022/07/06 02:56:10;;;;;;;3.75;0.90;;;18.00;99.90;;;;;;4851832;29;20326;-79
2022/07/06 02:58:36;;;;;;;4.93;1.00;;;18.00;99.90;;;;;;4852016;29;20037;-79
2022/07/06 03:01:02;;;;;;;2.83;1.20;;;17.90;99.90;;;;;;4851857;29;20096;-79
2022/07/06 03:03:28;;;;;;;2.80;0.90;;;17.90;99.90;;;;;;4852168;29;20080;-79
2022/07/06 03:05:53;;;;;;;3.70;0.95;;;17.90;99.90;;;;;;4865842;29;20034;-79
2022/07/06 03:08:19;;;;;;;5.15;1.40;;;17.80;99.90;;;;;;4852275;29;20113;-78
2022/07/06 03:10:45;;;;;;;5.55;1.00;;;17.80;99.90;;;;;;4851194;29;20037;-79
2022/07/06 03:13:11;;;;;;;4.25;0.95;;;17.80;99.90;;;;;;4851710;29;20030;-79
2022/07/06 03:15:36;;;;;;;5.68;1.20;;;17.80;99.90;;;;;;4852122;29;20071;-79
2022/07/06 03:18:02;;;;;;;3.17;0.77;;;17.90;99.90;;;;;;4851832;29;20102;-79
2022/07/06 03:20:28;;;;;;;5.82;1.30;;;17.80;99.90;;;;;;4852246;29;20097;-79
2022/07/06 03:22:54;;;;;;;4.80;1.00;;;17.80;99.90;;;;;;4851209;29;20029;-78
2022/07/06 03:25:19;;;;;;;2.95;1.30;;;17.70;99.90;;;;;;4851681;29;20034;-79
2022/07/06 03:27:45;;;;;;;2.70;1.10;;;17.60;99.90;;;;;;4838467;29;20054;-79
2022/07/06 03:30:11;;;;;;;2.70;0.93;;;17.60;99.90;;;;;;4851615;29;20037;-78
2022/07/06 03:32:37;;;;;;;5.57;1.10;;;17.60;99.90;;;;;;4850952;29;20041;-79
2022/07/06 03:35:03;;;;;;;4.10;1.30;;;17.60;99.90;;;;;;4850594;29;20286;-79
2022/07/06 03:37:29;;;;;;;2.65;0.90;;;17.60;99.90;;;;;;4851241;29;20038;-79
2022/07/06 03:39:54;;;;;;;2.60;0.95;;;17.50;99.90;;;;;;4850182;29;20398;-79
2022/07/06 03:42:20;;;;;;;5.03;1.25;;;17.40;99.90;;;;;;4851865;29;20237;-79
2022/07/06 03:44:46;;;;;;;2.50;1.08;;;17.40;99.90;;;;;;4851191;29;20030;-79
2022/07/06 03:47:12;;;;;;;3.03;1.25;;;17.40;99.90;;;;;;4851657;29;20038;-79
2022/07/06 03:49:37;;;;;;;1.95;1.10;;;17.30;99.90;;;;;;4851335;29;20063;-79
2022/07/06 03:52:03;;;;;;;2.97;0.93;;;17.30;99.90;;;;;;4850601;29;20038;-79
2022/07/06 03:54:29;;;;;;;3.33;1.10;;;17.40;99.90;;;;;;4848640;29;20030;-78
2022/07/06 03:56:55;;;;;;;3.88;1.27;;;17.30;99.90;;;;;;4840206;29;20041;-78
2022/07/06 03:59:20;;;;;;;3.22;1.17;;;17.30;99.90;;;;;;4827768;29;20039;-78
2022/07/06 04:01:46;;;;;;;3.08;1.00;;;17.30;99.90;;;;;;4827582;29;20069;-78
2022/07/06 04:04:12;;;;;;;4.93;1.30;;;17.30;99.90;;;;;;4824062;29;20129;-78
2022/07/06 04:06:38;;;;;;;6.55;1.55;;;17.30;99.90;;;;;;4822087;29;20062;-78
2022/07/06 04:09:04;;;;;;;3.28;1.20;;;17.30;99.90;;;;;;4822585;29;20031;-78
2022/07/06 04:11:30;;;;;;;2.67;1.25;;;17.20;99.90;;;;;;4820648;29;20438;-78
2022/07/06 04:13:55;;;;;;;2.60;1.15;;;17.20;99.90;;;;;;4822122;29;20113;-78
2022/07/06 04:16:21;;;;;;;5.90;1.75;;;17.20;99.90;;;;;;4822148;29;20027;-78
2022/07/06 04:18:47;;;;;;;6.10;1.15;;;17.20;99.90;;;;;;4820947;29;20027;-78
2022/07/06 04:21:12;;;;;;;3.05;1.30;;;17.20;99.90;;;;;;4827791;29;20018;-78
2022/07/06 04:23:38;;;;;;;7.43;1.33;;;17.20;99.90;;;;;;4822945;29;20031;-78
2022/07/06 04:26:04;;;;;;;4.95;1.20;;;17.00;99.90;;;;;;4822986;29;20068;-78
2022/07/06 04:28:30;;;;;;;3.17;1.25;;;16.90;99.90;;;;;;4830337;29;20018;-78
2022/07/06 04:30:55;;;;;;;4.60;1.52;;;17.00;99.90;;;;;;4840793;29;20415;-78
2022/07/06 04:33:21;;;;;;;3.97;1.42;;;17.00;99.90;;;;;;4839574;29;20274;-78
2022/07/06 04:35:47;;;;;;;4.20;1.27;;;17.00;99.90;;;;;;4839733;29;20037;-78
2022/07/06 04:38:13;;;;;;;4.72;1.20;;;17.10;99.90;;;;;;4840126;29;20018;-78
2022/07/06 04:40:39;;;;;;;6.15;1.33;;;17.10;99.90;;;;;;4841663;29;20036;-78
2022/07/06 04:43:04;;;;;;;3.63;1.50;;;17.00;99.90;;;;;;4843509;29;20038;-78
2022/07/06 04:45:30;;;;;;;3.53;1.48;;;16.90;99.90;;;;;;4839609;29;20460;-78
2022/07/06 04:47:56;;;;;;;9.82;1.95;;;16.90;99.90;;;;;;4843552;29;20436;-78
2022/07/06 04:50:21;;;;;;;6.35;1.70;;;16.90;99.90;;;;;;4842535;29;20077;-78
2022/07/06 04:52:47;;;;;;;8.68;1.30;;;16.90;99.90;;;;;;4839959;29;20036;-78
2022/07/06 04:55:14;;;;;;;3.22;1.60;;;16.90;99.90;;;;;;4834651;29;20037;-78
2022/07/06 04:57:40;;;;;;;6.18;1.40;;;16.90;99.90;;;;;;4846037;29;20066;-78
2022/07/06 05:00:06;;;;;;;7.82;1.42;;;16.90;99.90;;;;;;4849818;29;20271;-78
2022/07/06 05:02:32;;;;;;;9.02;1.95;;;16.90;99.90;;;;;;4850029;29;20030;-79
2022/07/06 05:04:57;;;;;;;5.93;1.60;;;16.90;99.90;;;;;;4824544;29;20237;-78
2022/07/06 05:07:28;;;;;;;2.33;1.25;;;16.90;99.90;;;;;;4849968;29;20089;-78
2022/07/06 05:09:53;;;;;;;3.38;1.20;;;16.90;99.90;;;;;;4849157;29;20037;-78
2022/07/06 05:12:19;;;;;;;3.53;1.63;;;16.90;99.90;;;;;;4850009;29;20045;-78
2022/07/06 05:14:44;;;;;;;5.30;1.40;;;17.00;99.90;;;;;;4850007;29;20037;-78
2022/07/06 05:17:10;;;;;;;5.47;1.83;;;17.00;99.90;;;;;;4849556;29;20022;-78
2022/07/06 05:19:36;;;;;;;4.45;1.65;;;17.00;99.90;;;;;;4850065;29;20378;-77
2022/07/06 05:22:01;;;;;;;6.90;1.33;;;17.00;99.90;;;;;;4839504;29;20491;-78
2022/07/06 05:24:27;;;;;;;2.72;1.45;;;17.00;99.90;;;;;;4839613;29;20041;-78
2022/07/06 05:26:53;;;;;;;6.72;1.60;;;17.00;99.90;;;;;;4831137;29;20023;-77
2022/07/06 05:29:18;;;;;;;5.72;1.63;;;17.00;99.90;;;;;;4833782;29;20034;-77
2022/07/06 05:31:44;;;;;;;4.35;1.50;;;17.00;99.90;;;;;;4838756;29;20106;-78
2022/07/06 05:34:10;;;;;;;6.05;1.80;;;17.10;99.90;;;;;;4839080;29;20468;-78
2022/07/06 05:36:35;;;;;;;5.40;1.90;;;17.10;99.90;;;;;;4838796;29;20029;-78
2022/07/06 05:39:01;;;;;;;4.93;1.30;;;17.20;99.90;;;;;;4839020;29;20029;-78
2022/07/06 05:41:26;;;;;;;3.25;1.50;;;17.30;99.90;;;;;;4838870;29;20045;-77
2022/07/06 05:43:52;;;;;;;7.68;1.85;;;17.30;99.90;;;;;;4839015;29;20427;-78
2022/07/06 05:46:18;;;;;;;9.07;1.60;;;17.30;99.90;;;;;;4838779;29;20026;-78
2022/07/06 05:51:27;;;;;;;3.63;1.55;;;17.30;99.90;;;;;;4838595;29;20051;-78
2022/07/06 05:53:53;;;;;;;6.72;1.70;;;17.30;99.90;;;;;;4838782;29;20034;-78
2022/07/06 05:56:19;;;;;;;2.75;1.48;;;17.30;99.90;;;;;;4838990;29;20029;-78
2022/07/06 05:58:44;;;;;;;5.13;1.85;;;17.30;99.90;;;;;;4841985;29;20078;-77
2022/07/06 06:01:10;;;;;;;4.53;1.38;;;17.40;99.90;;;;;;4842440;29;20038;-78
2022/07/06 06:03:36;;;;;;;4.18;1.40;;;17.40;99.90;;;;;;4842154;29;20132;-78
2022/07/06 06:06:02;;;;;;;4.50;1.50;;;17.50;99.90;;;;;;4842317;29;20376;-78
2022/07/06 06:08:28;;;;;;;4.90;1.60;;;17.40;99.90;;;;;;4842211;29;20030;-78
2022/07/06 06:10:54;;;;;;;4.18;1.52;;;17.40;99.90;;;;;;4842355;29;20045;-78
2022/07/06 06:13:19;;;;;;;3.70;1.75;;;17.40;99.90;;;;;;4842372;29;20082;-78
2022/07/06 06:15:45;;;;;;;10.55;1.92;;;17.40;99.90;;;;;;4842036;29;20072;-78
2022/07/06 06:18:10;;;;;;;3.45;1.50;;;17.50;99.90;;;;;;4842232;29;20029;-77
2022/07/06 06:20:36;;;;;;;5.97;1.65;;;17.50;99.90;;;;;;4842130;29;20499;-78
2022/07/06 06:23:04;;;;;;;6.07;1.83;;;17.50;99.90;;;;;;4842152;29;20022;-78
2022/07/06 06:25:32;;;;;;;5.18;1.40;;;17.60;99.90;;;;;;4842012;29;20026;-78
2022/07/06 06:27:58;;;;;;;5.50;1.63;;;17.70;99.90;;;;;;4829124;29;20399;-78
2022/07/06 06:30:24;;;;;;;6.45;1.77;;;17.80;99.90;;;;;;4841912;29;20052;-78
2022/07/06 06:32:50;;;;;;;3.80;1.30;;;18.00;99.90;;;;;;4828623;29;20179;-78
2022/07/06 06:35:16;;;;;;;3.25;1.55;;;17.90;99.90;;;;;;4841838;29;20566;-78
2022/07/06 06:37:42;;;;;;;8.50;2.15;;;17.90;99.90;;;;;;4829365;29;20048;-78
2022/07/06 06:40:08;;;;;;;3.72;1.40;;;18.00;99.90;;;;;;4841762;29;20029;-77
2022/07/06 06:42:36;;;;;;;5.55;1.35;;;18.00;99.90;;;;;;4841801;29;20111;-78
2022/07/06 06:45:02;;;;;;;4.50;1.60;;;18.00;99.90;;;;;;4841676;29;20037;-78
2022/07/06 06:47:28;;;;;;;5.88;1.88;;;18.10;99.90;;;;;;4840334;29;20026;-78
2022/07/06 06:49:54;;;;;;;5.40;1.50;;;18.20;99.90;;;;;;4841282;29;20042;-78
2022/07/06 06:52:19;;;;;;;4.85;1.50;;;18.20;99.90;;;;;;4841538;29;20042;-78
2022/07/06 06:54:45;;;;;;;3.78;1.30;;;18.40;99.90;;;;;;4841502;29;20057;-79
2022/07/06 06:57:11;;;;;;;3.47;1.42;;;18.40;99.90;;;;;;4841751;29;20026;-78
2022/07/06 06:59:36;;;;;;;7.45;1.60;;;18.60;99.90;;;;;;4841578;29;20030;-78
2022/07/06 07:02:02;;;;;;;6.35;1.50;;;18.60;99.90;;;;;;4841356;29;20030;-78
2022/07/06 07:04:29;;;;;;;5.70;2.13;;;18.70;99.90;;;;;;4841267;29;20590;-78
2022/07/06 07:06:54;;;;;;;4.57;1.40;;;18.80;99.90;;;;;;4841222;29;20026;-78
2022/07/06 07:09:20;;;;;;;7.18;1.30;;;18.80;99.90;;;;;;4840232;29;20040;-78
2022/07/06 07:11:46;;;;;;;6.60;1.80;;;18.90;99.90;;;;;;4841305;29;20044;-78
2022/07/06 07:14:11;;;;;;;9.45;1.50;;;18.90;99.90;;;;;;4841178;29;20464;-78
2022/07/06 07:16:37;;;;;;;5.03;1.40;;;19.00;99.90;;;;;;4841263;29;20121;-78
2022/07/06 07:19:02;;;;;;;3.72;1.20;;;19.10;99.90;;;;;;4841025;29;20045;-78
2022/07/06 07:21:28;;;;;;;3.97;1.20;;;19.20;99.90;;;;;;4841154;29;20194;-78
2022/07/06 07:23:54;;;;;;;5.18;1.50;;;19.30;99.90;;;;;;4841001;29;20026;-78
2022/07/06 07:26:19;;;;;;;5.30;1.60;;;19.40;99.90;;;;;;4837453;29;20042;-78
2022/07/06 07:28:46;;;;;;;3.95;1.23;;;19.50;99.90;;;;;;4831733;29;20030;-78
2022/07/06 07:31:12;;;;;;;5.60;1.88;;;19.60;99.90;;;;;;4840996;29;20041;-78
2022/07/06 07:33:38;;;;;;;6.78;1.40;;;19.70;99.90;;;;;;4840647;29;20386;-78
2022/07/06 07:36:04;;;;;;;4.45;1.20;;;19.70;99.90;;;;;;4840617;29;20042;-78
2022/07/06 07:38:30;;;;;;;7.68;1.63;;;19.80;99.90;;;;;;4840905;29;20470;-78
2022/07/06 07:40:55;;;;;;;8.82;1.88;;;19.90;99.90;;;;;;4840838;29;20049;-78
2022/07/06 07:43:21;;;;;;;5.25;1.38;;;20.00;99.90;;;;;;4840652;29;20026;-78
2022/07/06 07:45:48;;;;;;;9.18;1.42;;;20.00;99.90;;;;;;4840606;29;20030;-78
2022/07/06 07:48:15;;;;;;;5.65;1.30;;;20.00;99.90;;;;;;4840451;29;20014;-78
2022/07/06 07:50:41;;;;;;;3.75;1.20;;;20.10;99.90;;;;;;4840507;29;20535;-78
2022/07/06 07:53:07;;;;;;;5.55;1.30;;;20.20;99.90;;;;;;4840467;29;20034;-78
2022/07/06 07:55:33;;;;;;;3.35;1.08;;;20.30;99.90;;;;;;4840377;29;20067;-78
2022/07/06 07:57:59;;;;;;;3.45;1.27;;;20.40;99.90;;;;;;4840861;29;20195;-78
2022/07/06 08:00:26;;;;;;;3.78;1.33;;;20.60;99.90;;;;;;4840442;29;20022;-78
2022/07/06 08:02:52;;;;;;;4.07;1.48;;;20.70;99.90;;;;;;4840135;29;20061;-78
2022/07/06 08:05:18;;;;;;;5.00;1.70;;;20.80;99.90;;;;;;4840342;29;20041;-78
2022/07/06 08:07:44;;;;;;;5.72;1.45;;;20.90;99.70;;;;;;4840655;29;20025;-78
2022/07/06 08:10:10;;;;;;;5.45;1.65;;;21.00;99.90;;;;;;4840212;29;20142;-78
2022/07/06 08:12:37;;;;;;;5.40;1.35;;;21.00;99.60;;;;;;4840263;29;20100;-78
2022/07/06 08:15:04;;;;;;;3.03;1.05;;;21.10;99.90;;;;;;4840203;29;20045;-78
2022/07/06 08:17:30;;;;;;;5.25;1.20;;;21.20;99.90;;;;;;4839835;29;20020;-78
2022/07/06 08:19:55;;;;;;;6.97;1.48;;;21.30;99.90;;;;;;4839911;29;20120;-78
2022/07/06 08:22:21;;;;;;;6.18;1.48;;;21.40;99.20;;;;;;4839953;29;20032;-78
2022/07/06 08:24:47;;;;;;;6.65;1.60;;;21.50;99.50;;;;;;4840324;29;20395;-78
2022/07/06 08:27:12;;;;;;;13.93;2.13;;;21.50;99.00;;;;;;4829883;29;20184;-78
2022/07/06 08:29:38;;;;;;;3.65;1.60;;;21.60;99.10;;;;;;4837372;29;20082;-78
2022/07/06 08:32:04;;;;;;;4.05;1.33;;;21.50;99.20;;;;;;4839958;29;20033;-78
2022/07/06 08:34:30;;;;;;;8.48;1.40;;;21.60;99.20;;;;;;4839566;29;20038;-78
2022/07/06 08:36:55;;;;;;;8.35;1.40;;;21.70;98.90;;;;;;4839809;29;20029;-78
2022/07/06 08:39:21;;;;;;;6.25;1.60;;;21.80;99.30;;;;;;4839775;29;20041;-78
2022/07/06 08:41:48;;;;;;;5.70;1.40;;;21.90;98.80;;;;;;4839652;29;20018;-78
2022/07/06 08:44:15;;;;;;;6.22;1.40;;;22.00;98.70;;;;;;4839784;29;20034;-78
2022/07/06 08:46:41;;;;;;;3.67;1.10;;;22.10;98.60;;;;;;4839795;29;20033;-78
2022/07/06 08:49:08;;;;;;;6.43;1.50;;;22.20;98.30;;;;;;4839931;29;20030;-78
2022/07/06 08:51:35;;;;;;;4.90;1.40;;;22.30;98.70;;;;;;4839384;29;20543;-78
2022/07/06 08:54:03;;;;;;;2.90;1.10;;;22.40;98.70;;;;;;4839461;29;20158;-78
2022/07/06 08:56:29;;;;;;;4.57;1.23;;;22.40;98.40;;;;;;4839455;29;20419;-78
2022/07/06 08:58:55;;;;;;;3.42;1.60;;;22.50;98.60;;;;;;4839344;29;20082;-78
2022/07/06 09:01:22;;;;;;;4.70;1.52;;;22.60;98.30;;;;;;4839232;29;20022;-78
2022/07/06 09:03:49;;;;;;;3.80;1.30;;;22.80;97.70;;;;;;4839044;29;20097;-78
2022/07/06 09:06:24;;;;;;;6.18;1.52;;;22.90;97.80;;;;;;4839493;29;20018;-78
2022/07/06 09:08:54;;;;;;;7.57;1.50;;;22.90;97.90;;;;;;4839271;29;20642;-78
2022/07/06 09:11:21;;;;;;;6.80;1.90;;;23.10;97.30;;;;;;4839283;29;20120;-77
2022/07/06 09:13:48;;;;;;;6.53;1.30;;;23.20;97.60;;;;;;4837743;29;20030;-78
2022/07/06 09:16:15;;;;;;;5.47;1.30;;;23.20;97.40;;;;;;4839156;29;20026;-78
2022/07/06 09:18:45;;;;;;;5.13;1.70;;;23.30;97.30;;;;;;4839030;29;20034;-78
2022/07/06 09:21:11;;;;;;;4.13;1.30;;;23.40;96.90;;;;;;4839093;29;20053;-80
2022/07/06 09:23:37;;;;;;;3.22;1.23;;;23.60;96.40;;;;;;4839244;29;20176;-78
2022/07/06 09:26:05;;;;;;;4.78;1.50;;;23.70;96.20;;;;;;4837493;29;20484;-78
2022/07/06 09:28:49;;;;;;;6.32;1.40;;;23.70;95.90;;;;;;4828553;29;20030;-78
2022/07/06 09:31:15;;;;;;;8.05;1.50;;;23.70;96.00;;;;;;4838792;29;20496;-78
2022/07/06 09:34:03;;;;;;;5.05;1.50;;;23.70;96.00;;;;;;4842378;29;20028;-78
2022/07/06 09:36:48;;;;;;;3.92;1.40;;;23.80;96.00;;;;;;4842632;29;20064;-78
2022/07/06 09:39:17;;;;;;;6.43;1.15;;;23.90;95.80;;;;;;4842705;29;20030;-78
2022/07/06 09:41:43;;;;;;;2.20;1.08;;;24.00;95.90;;;;;;4842581;29;20154;-78
2022/07/06 09:44:10;;;;;;;5.30;1.20;;;24.10;95.80;;;;;;4842867;29;20071;-78
2022/07/06 09:46:43;;;;;;;4.13;1.40;;;24.20;95.70;;;;;;4842423;29;20034;-78
2022/07/06 09:49:09;;;;;;;4.32;1.27;;;24.30;94.80;;;;;;4842727;29;20030;-78
2022/07/06 09:51:38;;;;;;;4.95;1.33;;;24.30;95.30;;;;;;4842740;29;20034;-78
2022/07/06 09:54:08;;;;;;;3.53;1.27;;;24.40;94.90;;;;;;4842462;29;20083;-78
2022/07/06 09:56:37;;;;;;;5.43;1.42;;;24.50;94.90;;;;;;4842443;29;20181;-78
2022/07/06 09:59:10;;;;;;;4.05;1.45;;;24.60;94.70;;;;;;4842394;29;20038;-78
2022/07/06 10:01:40;;;;;;;6.65;1.30;;;24.60;94.60;;;;;;4842110;29;20029;-78
2022/07/06 10:04:12;;;;;;;6.93;1.40;;;24.60;94.10;;;;;;4841003;29;20080;-78
2022/07/06 10:06:38;;;;;;;6.03;1.30;;;24.70;94.60;;;;;;4842514;29;20034;-78
2022/07/06 10:09:08;;;;;;;3.88;1.35;;;24.70;94.60;;;;;;4842249;29;20053;-78
2022/07/06 10:11:38;;;;;;;7.85;1.50;;;24.80;94.90;;;;;;4842201;29;20042;-77
2022/07/06 10:14:06;;;;;;;4.22;1.17;;;24.90;94.30;;;;;;4841894;29;20121;-78
2022/07/06 10:16:36;;;;;;;5.85;1.33;;;25.00;94.50;;;;;;4842175;29;20026;-77
2022/07/06 10:19:06;;;;;;;7.50;1.50;;;25.10;94.20;;;;;;4841670;29;20194;-77
2022/07/06 10:21:33;;;;;;;5.93;1.60;;;25.20;94.10;;;;;;4821072;29;20113;-77
2022/07/06 10:24:00;;;;;;;3.00;1.45;;;25.30;94.20;;;;;;4826872;29;20034;-77
2022/07/06 10:26:26;;;;;;;5.45;1.77;;;25.40;93.70;;;;;;4832849;29;20032;-77
2022/07/06 10:28:52;;;;;;;4.13;1.42;;;25.60;94.10;;;;;;4833945;29;20034;-77
2022/07/06 10:31:20;;;;;;;2.08;1.08;;;25.80;93.20;;;;;;4837071;29;20041;-77
2022/07/06 10:33:47;;;;;;;9.80;1.58;;;25.80;93.30;;;;;;4841920;29;20079;-77
2022/07/06 10:36:13;;;;;;;3.45;1.30;;;25.90;93.10;;;;;;4842113;29;20049;-77
2022/07/06 10:38:39;;;;;;;4.28;1.45;;;26.10;92.60;;;;;;4828465;29;20599;-77
2022/07/06 10:41:07;;;;;;;4.70;1.40;;;26.10;92.70;;;;;;4842829;29;20034;-79
2022/07/06 10:43:36;;;;;;;3.90;1.20;;;26.10;92.30;;;;;;4841452;29;20022;-79
2022/07/06 10:46:19;;;;;;;3.72;1.35;;;26.20;92.20;;;;;;4841842;29;20042;-79
2022/07/06 10:48:46;;;;;;;5.07;1.10;;;26.20;92.10;;;;;;4841684;29;20021;-78
2022/07/06 10:51:22;;;;;;;6.00;1.67;;;26.30;91.90;;;;;;4841619;29;20090;-78
2022/07/06 10:53:56;;;;;;;3.67;1.30;;;26.50;92.20;;;;;;4838137;29;20019;-78
2022/07/06 10:56:42;;;;;;;8.10;1.57;;;26.60;92.10;;;;;;4832782;29;20109;-78
2022/07/06 10:59:11;;;;;;;8.13;1.63;;;26.70;91.30;;;;;;4841394;29;20358;-78
2022/07/06 11:01:38;;;;;;;5.82;1.40;;;26.70;91.40;;;;;;4841569;29;20057;-78
2022/07/06 11:04:03;;;;;;;2.75;1.25;;;26.90;91.00;;;;;;4839854;29;20056;-78
2022/07/06 11:06:33;;;;;;;4.60;1.30;;;27.10;91.00;;;;;;4840326;29;20121;-78
2022/07/06 11:09:08;;;;;;;5.10;1.60;;;27.20;90.70;;;;;;4841329;29;20033;-78
2022/07/06 11:11:33;;;;;;;5.25;1.35;;;27.10;90.40;;;;;;4841351;29;20045;-79
2022/07/06 11:14:06;;;;;;;4.35;1.25;;;27.20;90.60;;;;;;4841067;29;20022;-78
2022/07/06 11:16:47;;;;;;;5.53;1.52;;;27.30;90.20;;;;;;4840954;29;20038;-78
2022/07/06 11:19:18;;;;;;;5.63;1.33;;;27.40;90.20;;;;;;4840976;29;20021;-78
2022/07/06 11:21:49;;;;;;;8.40;1.50;;;27.50;90.00;;;;;;4841068;29;20045;-78
2022/07/06 11:24:19;;;;;;;4.65;1.25;;;27.50;90.20;;;;;;4841074;29;20026;-79
2022/07/06 11:26:51;;;;;;;5.57;1.27;;;27.70;88.00;;;;;;4841093;29;20029;-78
2022/07/06 11:29:22;;;;;;;3.50;1.40;;;27.80;89.00;;;;;;4828191;29;20038;-79
2022/07/06 11:31:50;;;;;;;3.85;1.27;;;27.90;88.80;;;;;;4840954;29;20037;-78
2022/07/06 11:34:30;;;;;;;5.90;1.40;;;28.10;86.90;;;;;;4841225;29;20472;-78
2022/07/06 11:37:01;;;;;;;2.53;1.10;;;28.10;86.70;;;;;;4840766;29;20084;-78
2022/07/06 11:39:32;;;;;;;6.30;1.38;;;28.10;88.90;;;;;;4840589;29;20030;-78
2022/07/06 11:41:59;;;;;;;2.38;1.30;;;28.30;86.00;;;;;;4839398;29;20431;-79
2022/07/06 11:44:24;;;;;;;4.35;1.20;;;28.30;85.40;;;;;;4841047;29;20074;-78
2022/07/06 11:46:50;;;;;;;3.75;1.08;;;28.40;86.20;;;;;;4840518;29;20026;-78
2022/07/06 11:49:17;;;;;;;2.40;1.00;;;28.50;84.00;;;;;;4840757;29;20065;-78
2022/07/06 11:51:45;;;;;;;4.80;1.20;;;28.60;84.60;;;;;;4840409;29;20030;-78
2022/07/06 11:54:16;;;;;;;5.53;1.10;;;28.80;85.00;;;;;;4840117;29;20125;-78
2022/07/06 11:56:46;;;;;;;2.45;1.20;;;28.80;84.20;;;;;;4838756;29;20068;-78
2022/07/06 11:59:12;;;;;;;3.65;1.35;;;29.00;83.70;;;;;;4840283;29;20488;-78
2022/07/06 12:01:41;;;;;;;4.53;1.20;;;29.10;83.10;;;;;;4840147;29;20033;-78
2022/07/06 12:04:07;;;;;;;4.18;1.30;;;29.20;82.50;;;;;;4840164;29;20050;-78
2022/07/06 12:06:33;;;;;;;4.78;1.10;;;29.10;82.70;;;;;;4840312;29;20115;-78
2022/07/06 12:09:03;;;;;;;3.33;1.27;;;29.20;81.90;;;;;;4840234;29;20121;-78
2022/07/06 12:11:32;;;;;;;5.90;1.10;;;29.40;81.80;;;;;;4840315;29;20499;-78
2022/07/06 12:14:00;;;;;;;2.55;1.05;;;29.60;80.30;;;;;;4840173;29;20089;-78
2022/07/06 12:16:36;;;;;;;2.85;1.48;;;29.60;80.20;;;;;;4840011;29;20059;-80
2022/07/06 12:19:04;;;;;;;2.95;1.30;;;29.70;80.20;;;;;;4839899;29;20033;-80
2022/07/06 12:21:31;;;;;;;1.90;0.90;;;29.90;80.70;;;;;;4839913;29;20034;-80
2022/07/06 12:23:57;;;;;;;6.15;1.45;;;29.80;79.10;;;;;;4839899;29;20720;-80
2022/07/06 12:26:28;;;;;;;2.85;1.15;;;29.80;79.60;;;;;;4840430;29;20053;-80
2022/07/06 12:29:23;;;;;;;2.88;1.10;;;29.90;77.90;;;;;;4829642;29;20109;-80
2022/07/06 12:31:54;;;;;;;5.05;1.00;;;30.10;78.20;;;;;;4812137;29;20049;-80
2022/07/06 12:34:22;;;;;;;2.13;1.20;;;30.10;79.10;;;;;;4840010;29;20018;-80
2022/07/06 12:36:58;;;;;;;4.80;1.30;;;30.30;79.20;;;;;;4839848;29;20517;-80
2022/07/06 12:39:26;;;;;;;2.60;1.40;;;30.40;79.40;;;;;;4839649;29;20025;-80
2022/07/06 12:41:56;;;;;;;2.60;0.95;;;30.40;78.40;;;;;;4839929;29;20061;-80
2022/07/06 12:44:24;;;;;;;2.28;1.23;;;30.50;80.60;;;;;;4839633;29;20030;-80
2022/07/06 12:47:01;;;;;;;3.75;1.13;;;30.60;78.90;;;;;;4839451;29;20445;-80
2022/07/06 12:49:26;;;;;;;6.72;1.33;;;30.70;78.90;;;;;;4839687;29;20105;-79